TimeEDT,TemperatureF,Dew PointF,Humidity,Sea Level PressureIn,VisibilityMPH,Wind Direction,Wind SpeedMPH,Gust SpeedMPH,PrecipitationIn,Events,Conditions,WindDirDegrees,DateUTC
12:51 AM,41.0,36.0,82,29.98,10.0,NW,11.5,-,0.01,Rain,Light Rain,310,2013-04-14 04:51:00
1:51 AM,39.9,36.0,86,29.97,10.0,Calm,Calm,-,0.00,Rain,Light Rain,0,2013-04-14 05:51:00
2:51 AM,39.0,35.1,86,29.96,10.0,West,5.8,-,0.01,Rain,Light Rain,270,2013-04-14 06:51:00
3:51 AM,39.0,35.1,86,29.96,10.0,SSW,5.8,-,0.00,,Overcast,210,2013-04-14 07:51:00
4:51 AM,39.9,34.0,79,29.97,10.0,WSW,8.1,-,0.00,,Overcast,250,2013-04-14 08:51:00
5:51 AM,37.9,33.1,83,29.97,10.0,Calm,Calm,-,0.00,,Mostly Cloudy,0,2013-04-14 09:51:00
6:51 AM,37.9,33.1,83,30.01,10.0,West,4.6,-,N/A,,Mostly Cloudy,260,2013-04-14 10:51:00
7:51 AM,39.9,32.0,73,30.03,10.0,WSW,9.2,-,N/A,,Scattered Clouds,240,2013-04-14 11:51:00
8:51 AM,39.9,32.0,73,30.05,10.0,West,13.8,-,0.00,,Mostly Cloudy,270,2013-04-14 12:51:00
9:51 AM,42.1,30.0,62,30.06,10.0,WNW,18.4,24.2,N/A,,Mostly Cloudy,290,2013-04-14 13:51:00
10:51 AM,45.0,30.0,56,30.07,10.0,West,16.1,26.5,N/A,,Scattered Clouds,280,2013-04-14 14:51:00
11:51 AM,45.0,28.9,53,30.08,10.0,WNW,13.8,23.0,N/A,,Mostly Cloudy,290,2013-04-14 15:51:00
12:51 PM,44.1,26.1,49,30.09,10.0,WNW,17.3,25.3,N/A,,Overcast,290,2013-04-14 16:51:00
1:51 PM,44.1,27.0,51,30.12,10.0,West,13.8,24.2,N/A,,Overcast,280,2013-04-14 17:51:00
2:51 PM,45.0,27.0,49,30.12,10.0,West,13.8,-,N/A,,Overcast,280,2013-04-14 18:51:00
3:51 PM,46.0,25.0,44,30.13,10.0,WNW,15.0,23.0,N/A,,Mostly Cloudy,300,2013-04-14 19:51:00
4:51 PM,45.0,25.0,46,30.15,10.0,WNW,11.5,23.0,N/A,,Mostly Cloudy,300,2013-04-14 20:51:00
5:51 PM,45.0,25.0,46,30.16,10.0,NW,13.8,19.6,N/A,,Mostly Cloudy,310,2013-04-14 21:51:00
6:51 PM,45.0,23.0,42,30.17,10.0,WNW,12.7,19.6,N/A,,Mostly Cloudy,300,2013-04-14 22:51:00
7:51 PM,43.0,24.1,47,30.19,10.0,NW,6.9,-,N/A,,Mostly Cloudy,310,2013-04-14 23:51:00
8:51 PM,39.0,23.0,53,30.22,10.0,West,3.5,-,N/A,,Scattered Clouds,280,2013-04-15 00:51:00
9:51 PM,36.0,25.0,64,30.22,10.0,Calm,Calm,-,N/A,,Partly Cloudy,0,2013-04-15 01:51:00
10:51 PM,34.0,25.0,70,30.25,10.0,Calm,Calm,-,N/A,,Partly Cloudy,0,2013-04-15 02:51:00
11:51 PM,32.0,25.0,75,30.25,10.0,Calm,Calm,-,N/A,,Partly Cloudy,0,2013-04-15 03:51:00